Time;durP1;ratioP1;P1;durP2;ratioP2;P2;SDS_P1;SDS_P2;PMS_P1;PMS_P2;Temp;Humidity;BMP_temperature;BMP_pressure;BME280_temperature;BME280_humidity;BME280_pressure;Samples;Min_cycle;Max_cycle;Signal;HPM_P1;HPM_P2
2021/12/29 00:00:28;;;;;;;5.75;1.45;;;;;;;;;;5048462;28;20073;-57
2021/12/29 00:02:58;;;;;;;6.10;1.70;;;;;;;;;;5046090;28;20060;-58
2021/12/29 00:05:24;;;;;;;3.28;1.20;;;;;;;;;;5048775;28;20107;-58
2021/12/29 00:07:51;;;;;;;3.20;1.05;;;;;;;;;;5049145;28;20077;-57
2021/12/29 00:10:20;;;;;;;2.75;1.23;;;;;;;;;;5044808;28;20111;-58
2021/12/29 00:12:50;;;;;;;3.20;1.40;;;;;;;;;;5048360;28;20110;-56
2021/12/29 00:15:21;;;;;;;4.43;1.42;;;;;;;;;;5044519;28;20056;-58
2021/12/29 00:17:48;;;;;;;2.58;1.30;;;;;;;;;;5048585;28;20208;-57
2021/12/29 00:20:18;;;;;;;5.20;1.63;;;;;;;;;;5044510;28;20122;-57
2021/12/29 00:22:45;;;;;;;6.13;1.95;;;;;;;;;;5048539;28;20057;-56
2021/12/29 00:25:12;;;;;;;7.65;2.00;;;;;;;;;;5044764;28;20053;-54
2021/12/29 00:27:38;;;;;;;4.53;1.65;;;;;;;;;;5048645;28;20099;-55
2021/12/29 00:30:06;;;;;;;3.25;1.42;;;;;;;;;;5044804;28;20053;-57
2021/12/29 00:32:33;;;;;;;7.60;2.00;;;;;;;;;;5049227;28;20080;-56
2021/12/29 00:34:59;;;;;;;8.00;2.30;;;;;;;;;;5045554;28;20524;-56
2021/12/29 00:37:27;;;;;;;6.20;2.38;;;;;;;;;;5051361;28;20040;-59
2021/12/29 00:39:54;;;;;;;5.93;2.33;;;;;;;;;;5047653;28;20053;-60
2021/12/29 00:42:20;;;;;;;5.38;2.08;;;;;;;;;;5048628;28;20136;-57
2021/12/29 00:44:50;;;;;;;5.60;1.83;;;;;;;;;;5044418;28;20111;-57
2021/12/29 00:47:19;;;;;;;7.43;2.30;;;;;;;;;;5047657;28;20126;-57
2021/12/29 00:49:53;;;;;;;4.68;1.85;;;;;;;;;;5043573;28;20049;-57
2021/12/29 00:52:20;;;;;;;4.45;1.90;;;;;;;;;;5048043;28;20140;-56
2021/12/29 00:54:48;;;;;;;8.35;1.60;;;;;;;;;;5044646;28;20136;-57
2021/12/29 00:57:15;;;;;;;2.53;1.40;;;;;;;;;;5028186;28;20064;-56
2021/12/29 00:59:42;;;;;;;3.88;1.77;;;;;;;;;;5047445;28;20116;-57
2021/12/29 01:02:09;;;;;;;7.10;1.67;;;;;;;;;;5043813;28;20574;-57
2021/12/29 01:04:35;;;;;;;5.70;1.48;;;;;;;;;;5047288;28;20060;-56
2021/12/29 01:07:02;;;;;;;6.97;1.88;;;;;;;;;;5043355;28;20056;-56
2021/12/29 01:09:28;;;;;;;4.47;1.70;;;;;;;;;;5047157;28;20053;-57
2021/12/29 01:11:57;;;;;;;6.15;1.52;;;;;;;;;;5044007;28;20060;-56
2021/12/29 01:14:25;;;;;;;9.98;1.85;;;;;;;;;;5047468;28;20072;-57
2021/12/29 01:16:52;;;;;;;8.90;1.90;;;;;;;;;;5043392;28;20048;-56
2021/12/29 01:19:19;;;;;;;4.95;1.30;;;;;;;;;;5046890;28;20084;-56
2021/12/29 01:21:46;;;;;;;4.25;1.77;;;;;;;;;;5043296;28;20048;-56
2021/12/29 01:24:13;;;;;;;3.28;1.40;;;;;;;;;;5047293;28;20140;-53
2021/12/29 01:26:41;;;;;;;6.85;1.75;;;;;;;;;;5042994;28;20061;-57
2021/12/29 01:29:09;;;;;;;6.32;1.65;;;;;;;;;;5047013;28;20140;-55
2021/12/29 01:31:36;;;;;;;10.18;1.85;;;;;;;;;;5043031;28;20064;-57
2021/12/29 01:34:04;;;;;;;8.98;1.90;;;;;;;;;;5047136;28;20088;-56
2021/12/29 01:36:31;;;;;;;6.45;1.88;;;;;;;;;;5043689;28;20057;-55
2021/12/29 01:38:58;;;;;;;10.20;1.75;;;;;;;;;;5047044;28;20144;-56
2021/12/29 01:41:24;;;;;;;8.07;1.70;;;;;;;;;;5038530;28;20148;-55
2021/12/29 01:43:51;;;;;;;5.93;1.90;;;;;;;;;;5023148;28;20518;-56
2021/12/29 01:46:20;;;;;;;4.05;1.60;;;;;;;;;;5026720;28;20053;-56
2021/12/29 01:48:46;;;;;;;6.40;1.95;;;;;;;;;;5032713;28;20052;-56
2021/12/29 01:51:16;;;;;;;7.43;1.70;;;;;;;;;;5046693;28;20118;-55
2021/12/29 01:54:00;;;;;;;7.03;1.60;;;;;;;;;;5043111;28;20057;-55
2021/12/29 01:56:27;;;;;;;6.82;1.80;;;;;;;;;;5046754;28;20053;-57
2021/12/29 01:58:53;;;;;;;7.63;1.98;;;;;;;;;;5042688;28;20176;-55
2021/12/29 02:01:22;;;;;;;6.68;1.83;;;;;;;;;;5045514;28;20084;-57
2021/12/29 02:03:50;;;;;;;4.38;1.58;;;;;;;;;;5043151;28;20052;-57
2021/12/29 02:06:16;;;;;;;4.68;1.55;;;;;;;;;;5031727;28;20041;-57
2021/12/29 02:08:43;;;;;;;3.72;1.40;;;;;;;;;;5024633;28;20053;-56
2021/12/29 02:11:10;;;;;;;5.22;1.55;;;;;;;;;;5060272;28;20149;-59
2021/12/29 02:13:36;;;;;;;13.18;1.90;;;;;;;;;;5044988;28;20081;-58
2021/12/29 02:16:03;;;;;;;7.35;1.73;;;;;;;;;;5047027;28;20208;-57
2021/12/29 02:18:32;;;;;;;4.47;1.42;;;;;;;;;;5042454;28;20057;-56
2021/12/29 02:21:02;;;;;;;6.20;1.73;;;;;;;;;;5046525;28;20053;-56
2021/12/29 02:23:33;;;;;;;7.13;1.80;;;;;;;;;;5042832;28;20057;-55
2021/12/29 02:26:00;;;;;;;4.03;1.73;;;;;;;;;;5045708;28;20048;-58
2021/12/29 02:28:28;;;;;;;5.00;1.48;;;;;;;;;;5046037;28;20076;-57
2021/12/29 02:30:58;;;;;;;7.83;1.57;;;;;;;;;;5044017;28;20092;-56
2021/12/29 02:33:25;;;;;;;4.25;1.13;;;;;;;;;;5045892;28;20295;-56
2021/12/29 02:35:51;;;;;;;4.72;1.55;;;;;;;;;;5041534;28;20076;-56
2021/12/29 02:38:24;;;;;;;2.83;1.30;;;;;;;;;;5045401;28;20049;-55
2021/12/29 02:40:52;;;;;;;8.27;1.80;;;;;;;;;;5040361;28;20525;-55
2021/12/29 02:43:21;;;;;;;9.20;1.80;;;;;;;;;;5045850;28;20106;-57
2021/12/29 02:45:50;;;;;;;;;;;;;;;;;;5041410;28;20425;-57
2021/12/29 02:48:17;;;;;;;8.88;1.52;;;;;;;;;;5045740;28;19924;-56
2021/12/29 02:50:46;;;;;;;3.20;1.45;;;;;;;;;;5038989;28;20501;-57
2021/12/29 02:53:14;;;;;;;4.13;1.90;;;;;;;;;;5029077;28;20059;-56
2021/12/29 02:55:42;;;;;;;6.80;1.57;;;;;;;;;;5042315;28;20080;-57
2021/12/29 02:58:08;;;;;;;4.00;1.45;;;;;;;;;;5045556;28;20080;-56
2021/12/29 03:00:35;;;;;;;2.80;1.30;;;;;;;;;;5039729;28;20131;-57
2021/12/29 03:03:02;;;;;;;4.68;1.23;;;;;;;;;;5045702;28;20068;-57
2021/12/29 03:05:28;;;;;;;12.88;2.20;;;;;;;;;;5041953;28;20168;-57
2021/12/29 03:07:55;;;;;;;4.10;1.70;;;;;;;;;;5045950;28;20053;-58
2021/12/29 03:10:27;;;;;;;9.90;1.50;;;;;;;;;;5043227;28;20152;-58
2021/12/29 03:12:55;;;;;;;9.82;2.08;;;;;;;;;;5049328;28;20121;-55
2021/12/29 03:15:21;;;;;;;8.73;1.83;;;;;;;;;;5046566;28;20049;-57
2021/12/29 03:17:48;;;;;;;4.93;1.48;;;;;;;;;;5028619;28;20057;-57
2021/12/29 03:20:15;;;;;;;6.90;2.20;;;;;;;;;;5029741;28;20084;-57
2021/12/29 03:22:42;;;;;;;10.88;2.25;;;;;;;;;;5043914;28;20141;-58
2021/12/29 03:25:09;;;;;;;11.13;2.50;;;;;;;;;;5049652;28;20095;-57
2021/12/29 03:27:35;;;;;;;10.27;2.83;;;;;;;;;;5045326;28;20089;-59
2021/12/29 03:30:05;;;;;;;11.40;2.38;;;;;;;;;;5049185;28;20136;-58
2021/12/29 03:32:41;;;;;;;7.88;1.98;;;;;;;;;;5045558;28;20168;-58
2021/12/29 03:35:08;;;;;;;11.82;2.38;;;;;;;;;;5049841;28;20049;-57
2021/12/29 03:37:34;;;;;;;14.60;2.47;;;;;;;;;;5045292;28;20065;-58
2021/12/29 03:40:01;;;;;;;5.50;1.60;;;;;;;;;;5040055;28;20495;-59
2021/12/29 03:42:28;;;;;;;12.65;2.05;;;;;;;;;;5039596;28;20072;-58
2021/12/29 03:44:54;;;;;;;8.82;2.45;;;;;;;;;;5051617;28;20055;-58
2021/12/29 03:47:22;;;;;;;12.63;2.10;;;;;;;;;;5047205;28;20136;-57
2021/12/29 03:49:52;;;;;;;8.37;2.13;;;;;;;;;;5033437;28;20052;-53
2021/12/29 03:52:18;;;;;;;9.60;2.00;;;;;;;;;;5045851;28;20056;-56
2021/12/29 03:54:45;;;;;;;11.68;2.28;;;;;;;;;;5049108;28;20136;-57
2021/12/29 03:57:11;;;;;;;4.75;1.73;;;;;;;;;;5044554;28;20045;-58
2021/12/29 03:59:38;;;;;;;7.70;3.08;;;;;;;;;;5049022;28;20168;-57
2021/12/29 04:02:05;;;;;;;9.55;1.77;;;;;;;;;;5048575;28;20064;-57
2021/12/29 04:04:33;;;;;;;9.85;2.00;;;;;;;;;;5045842;28;20075;-57
2021/12/29 04:06:59;;;;;;;15.63;2.10;;;;;;;;;;5047928;28;20091;-59
2021/12/29 04:09:26;;;;;;;7.70;1.73;;;;;;;;;;5044188;28;20053;-59
2021/12/29 04:11:52;;;;;;;9.80;1.70;;;;;;;;;;5048356;28;20140;-57
2021/12/29 04:14:20;;;;;;;7.72;1.63;;;;;;;;;;5030045;28;20065;-57
2021/12/29 04:16:47;;;;;;;7.93;1.63;;;;;;;;;;5054028;28;20072;-57
2021/12/29 04:19:29;;;;;;;4.20;1.60;;;;;;;;;;5043835;28;20056;-57
2021/12/29 04:21:57;;;;;;;3.00;1.40;;;;;;;;;;5047989;28;20057;-57
2021/12/29 04:24:24;;;;;;;6.72;1.80;;;;;;;;;;5043239;28;20049;-57
2021/12/29 04:26:51;;;;;;;11.68;1.80;;;;;;;;;;5048080;28;20071;-57
2021/12/29 04:29:18;;;;;;;8.65;1.80;;;;;;;;;;5044481;28;20049;-57
2021/12/29 04:31:44;;;;;;;8.80;1.70;;;;;;;;;;5048024;28;20057;-57
2021/12/29 04:34:11;;;;;;;5.75;2.22;;;;;;;;;;5044329;28;20049;-57
2021/12/29 04:36:40;;;;;;;6.35;1.60;;;;;;;;;;5047788;28;20053;-56
2021/12/29 04:39:08;;;;;;;8.27;1.60;;;;;;;;;;5043944;28;20053;-57
2021/12/29 04:41:36;;;;;;;5.68;1.52;;;;;;;;;;5046993;28;20147;-56
2021/12/29 04:44:02;;;;;;;5.25;1.80;;;;;;;;;;5045530;28;20036;-57
2021/12/29 04:46:37;;;;;;;6.07;1.88;;;;;;;;;;5048155;28;20055;-57
2021/12/29 04:49:04;;;;;;;6.88;2.00;;;;;;;;;;5044546;28;20052;-57
2021/12/29 04:51:36;;;;;;;5.00;2.17;;;;;;;;;;5048714;28;20040;-57
2021/12/29 04:54:04;;;;;;;5.38;2.22;;;;;;;;;;5047980;28;20053;-57
2021/12/29 04:56:32;;;;;;;7.63;1.90;;;;;;;;;;5044220;28;20053;-56
2021/12/29 04:58:59;;;;;;;6.13;2.22;;;;;;;;;;5048251;28;20067;-57
2021/12/29 05:01:26;;;;;;;3.47;1.60;;;;;;;;;;5043757;28;20060;-57
2021/12/29 05:03:54;;;;;;;9.00;1.90;;;;;;;;;;5048117;28;20072;-56
2021/12/29 05:09:04;;;;;;;7.88;1.98;;;;;;;;;;5047882;28;20052;-56
2021/12/29 05:11:32;;;;;;;8.93;1.65;;;;;;;;;;5044731;28;20072;-59
2021/12/29 05:13:59;;;;;;;6.72;2.00;;;;;;;;;;5049000;28;20133;-56
2021/12/29 05:16:28;;;;;;;8.48;2.30;;;;;;;;;;5046634;28;20080;-58
2021/12/29 05:18:54;;;;;;;;;;;;;;;;;;5051012;28;20049;-58
2021/12/29 05:21:28;;;;;;;4.68;1.80;;;;;;;;;;5043048;28;19952;-57
2021/12/29 05:23:55;;;;;;;5.85;2.30;;;;;;;;;;5047209;28;20065;-56
2021/12/29 05:26:21;;;;;;;8.18;2.05;;;;;;;;;;5043520;28;20098;-57
2021/12/29 05:28:49;;;;;;;5.78;1.80;;;;;;;;;;5047542;28;20114;-59
2021/12/29 05:31:16;;;;;;;8.30;2.40;;;;;;;;;;5043570;28;20057;-56
2021/12/29 05:33:42;;;;;;;7.47;2.47;;;;;;;;;;5047065;28;20059;-57
2021/12/29 05:36:09;;;;;;;6.70;2.30;;;;;;;;;;5043113;28;20059;-57
2021/12/29 05:38:35;;;;;;;7.25;2.45;;;;;;;;;;5047421;28;20073;-58
2021/12/29 05:41:02;;;;;;;7.82;2.50;;;;;;;;;;5044689;28;20053;-57
2021/12/29 05:43:29;;;;;;;8.25;2.65;;;;;;;;;;5049278;28;20159;-59
2021/12/29 05:45:57;;;;;;;9.18;2.20;;;;;;;;;;5050012;28;20536;-56
2021/12/29 05:48:23;;;;;;;4.67;2.20;;;;;;;;;;5046090;28;20068;-57
2021/12/29 05:50:50;;;;;;;4.38;2.00;;;;;;;;;;5050024;28;20056;-57
2021/12/29 05:53:16;;;;;;;16.35;7.13;;;;;;;;;;5042912;28;20076;-57
2021/12/29 05:55:43;;;;;;;9.63;3.67;;;;;;;;;;5046120;28;20049;-57
2021/12/29 05:58:10;;;;;;;8.13;2.33;;;;;;;;;;5053423;28;20101;-57
2021/12/29 06:00:39;;;;;;;5.97;2.15;;;;;;;;;;5050296;28;20048;-57
2021/12/29 06:03:07;;;;;;;6.28;1.85;;;;;;;;;;5047419;28;20080;-58
2021/12/29 06:05:34;;;;;;;5.95;2.13;;;;;;;;;;5051158;28;20143;-57
2021/12/29 06:08:01;;;;;;;3.75;1.98;;;;;;;;;;5059271;28;20052;-55
2021/12/29 06:10:28;;;;;;;7.18;2.10;;;;;;;;;;5060252;28;20049;-57
2021/12/29 06:12:54;;;;;;;5.82;2.17;;;;;;;;;;5046566;28;20102;-57
2021/12/29 06:15:20;;;;;;;3.28;1.80;;;;;;;;;;5048216;28;20059;-56
2021/12/29 06:17:47;;;;;;;6.95;1.90;;;;;;;;;;5034329;28;20052;-55
2021/12/29 06:20:16;;;;;;;5.68;2.30;;;;;;;;;;5031532;28;20171;-56
2021/12/29 06:22:43;;;;;;;4.38;2.05;;;;;;;;;;5039039;28;20171;-57
2021/12/29 06:25:11;;;;;;;6.05;2.65;;;;;;;;;;5041611;28;20051;-57
2021/12/29 06:27:38;;;;;;;17.50;3.67;;;;;;;;;;5047726;28;20453;-58
2021/12/29 06:30:06;;;;;;;4.65;2.10;;;;;;;;;;5043280;28;20060;-57
2021/12/29 06:32:32;;;;;;;8.85;3.10;;;;;;;;;;5032707;28;20106;-57
2021/12/29 06:34:58;;;;;;;9.38;3.25;;;;;;;;;;5041723;28;20057;-57
2021/12/29 06:37:26;;;;;;;9.73;2.95;;;;;;;;;;5045963;28;20494;-56
2021/12/29 06:39:53;;;;;;;12.02;3.10;;;;;;;;;;5043711;28;20064;-57
2021/12/29 06:42:20;;;;;;;8.63;3.30;;;;;;;;;;5045484;28;20052;-59
2021/12/29 06:44:47;;;;;;;7.45;2.28;;;;;;;;;;5042448;28;20106;-56
2021/12/29 06:47:15;;;;;;;14.88;4.07;;;;;;;;;;5047098;28;20103;-58
2021/12/29 06:49:42;;;;;;;14.10;3.38;;;;;;;;;;5043511;28;20076;-57
2021/12/29 06:52:09;;;;;;;11.20;3.17;;;;;;;;;;5046637;28;20056;-57
2021/12/29 06:54:37;;;;;;;11.88;2.50;;;;;;;;;;5038255;28;20045;-57
2021/12/29 06:57:04;;;;;;;10.73;2.80;;;;;;;;;;5025719;28;20053;-57
2021/12/29 06:59:31;;;;;;;7.70;2.78;;;;;;;;;;5022588;28;20050;-58
2021/12/29 07:01:58;;;;;;;5.07;2.50;;;;;;;;;;5042795;28;20089;-56
2021/12/29 07:04:24;;;;;;;5.43;2.42;;;;;;;;;;5039477;28;20057;-58
2021/12/29 07:06:51;;;;;;;8.55;2.53;;;;;;;;;;5045016;28;20073;-58
2021/12/29 07:09:18;;;;;;;8.10;2.35;;;;;;;;;;5045771;28;20156;-58
2021/12/29 07:11:46;;;;;;;6.35;2.40;;;;;;;;;;5041175;28;20131;-58
2021/12/29 07:14:12;;;;;;;8.50;3.35;;;;;;;;;;5044782;28;20057;-58
2021/12/29 07:16:39;;;;;;;7.35;3.28;;;;;;;;;;5041328;28;20060;-59
2021/12/29 07:19:06;;;;;;;7.22;2.63;;;;;;;;;;5045359;28;20135;-57
2021/12/29 07:21:33;;;;;;;10.63;3.15;;;;;;;;;;5041425;28;20059;-59
2021/12/29 07:24:00;;;;;;;6.32;2.78;;;;;;;;;;5044945;28;20139;-58
2021/12/29 07:26:26;;;;;;;5.63;2.22;;;;;;;;;;5040761;28;20053;-59
2021/12/29 07:28:56;;;;;;;11.20;2.47;;;;;;;;;;5044376;28;20049;-57
2021/12/29 07:31:25;;;;;;;8.10;2.30;;;;;;;;;;5041535;28;20061;-57
2021/12/29 07:33:51;;;;;;;10.38;2.80;;;;;;;;;;5045086;28;20049;-56
2021/12/29 07:36:18;;;;;;;10.07;2.58;;;;;;;;;;5040653;28;20166;-58
2021/12/29 07:38:45;;;;;;;9.13;2.63;;;;;;;;;;5044963;28;20056;-58
2021/12/29 07:41:21;;;;;;;12.50;3.10;;;;;;;;;;5038007;28;20050;-59
2021/12/29 07:43:50;;;;;;;6.55;3.08;;;;;;;;;;5025812;28;20069;-58
2021/12/29 07:46:19;;;;;;;5.75;2.33;;;;;;;;;;5042461;28;20045;-59
2021/12/29 07:48:45;;;;;;;6.72;2.72;;;;;;;;;;5046211;28;20083;-58
2021/12/29 07:51:15;;;;;;;8.45;3.00;;;;;;;;;;5041653;28;20472;-59
2021/12/29 07:53:41;;;;;;;10.57;2.90;;;;;;;;;;5044629;28;20103;-59
2021/12/29 07:56:09;;;;;;;15.43;3.83;;;;;;;;;;5044635;28;20136;-59
2021/12/29 07:58:36;;;;;;;6.72;2.78;;;;;;;;;;5041480;28;20134;-58
2021/12/29 08:01:04;;;;;;;6.57;2.55;;;;;;;;;;5048656;28;20080;-59
2021/12/29 08:03:32;;;;;;;9.20;3.38;;;;;;;;;;5044735;28;20103;-60
2021/12/29 08:05:58;;;;;;;9.67;3.03;;;;;;;;;;5048320;28;20135;-59
2021/12/29 08:08:25;;;;;;;9.65;3.30;;;;;;;;;;5044866;28;20080;-59
2021/12/29 08:10:52;;;;;;;12.27;4.05;;;;;;;;;;5048751;28;20048;-59
2021/12/29 08:13:19;;;;;;;6.50;3.13;;;;;;;;;;5044136;28;20052;-59
2021/12/29 08:15:45;;;;;;;11.77;3.28;;;;;;;;;;5048570;28;20080;-60
2021/12/29 08:18:12;;;;;;;13.88;4.70;;;;;;;;;;5044974;28;20144;-58
2021/12/29 08:20:40;;;;;;;10.18;4.40;;;;;;;;;;5051315;28;20114;-59
2021/12/29 08:23:07;;;;;;;6.45;3.05;;;;;;;;;;5047874;28;20049;-59
2021/12/29 08:25:34;;;;;;;11.73;3.50;;;;;;;;;;5048800;28;20140;-59
2021/12/29 08:28:01;;;;;;;10.70;3.75;;;;;;;;;;5040975;28;20487;-59
2021/12/29 08:30:29;;;;;;;10.90;3.88;;;;;;;;;;5044681;28;20045;-59
2021/12/29 08:32:55;;;;;;;10.27;3.65;;;;;;;;;;5028634;28;20045;-59
2021/12/29 08:35:22;;;;;;;9.43;4.13;;;;;;;;;;5048633;28;20063;-59
2021/12/29 08:37:50;;;;;;;12.73;3.58;;;;;;;;;;5048404;28;20091;-58
2021/12/29 08:40:17;;;;;;;9.05;3.20;;;;;;;;;;5046303;28;20088;-58
2021/12/29 08:42:46;;;;;;;12.15;3.35;;;;;;;;;;5048162;28;20063;-58
2021/12/29 08:45:12;;;;;;;;;;;;;;;;;;5044227;28;20053;-57
2021/12/29 08:47:39;;;;;;;7.82;2.40;;;;;;;;;;5047989;28;19925;-58
2021/12/29 08:50:08;;;;;;;7.22;3.13;;;;;;;;;;5044036;28;20143;-59
2021/12/29 08:52:35;;;;;;;9.85;3.63;;;;;;;;;;5047369;28;20148;-58
2021/12/29 08:55:04;;;;;;;14.80;3.10;;;;;;;;;;5043586;28;20099;-59
2021/12/29 08:57:30;;;;;;;7.75;2.67;;;;;;;;;;5047033;28;20079;-58
2021/12/29 08:59:59;;;;;;;6.05;2.50;;;;;;;;;;5043448;28;20106;-59
2021/12/29 09:02:25;;;;;;;10.57;4.30;;;;;;;;;;5046800;28;20084;-60
2021/12/29 09:04:52;;;;;;;8.55;3.25;;;;;;;;;;5039875;28;20053;-57
2021/12/29 09:07:18;;;;;;;11.57;3.53;;;;;;;;;;5048773;28;20053;-59
2021/12/29 09:09:45;;;;;;;16.02;4.70;;;;;;;;;;5042505;28;20138;-59
2021/12/29 09:12:13;;;;;;;21.65;4.03;;;;;;;;;;5046725;28;20049;-59
2021/12/29 09:14:40;;;;;;;8.15;3.75;;;;;;;;;;5042892;28;20051;-59
2021/12/29 09:17:06;;;;;;;11.32;5.15;;;;;;;;;;5029633;28;20077;-59
2021/12/29 09:19:39;;;;;;;19.95;5.72;;;;;;;;;;5047612;28;20123;-59
2021/12/29 09:22:05;;;;;;;12.10;4.85;;;;;;;;;;5031521;28;20045;-59
2021/12/29 09:24:32;;;;;;;9.65;4.57;;;;;;;;;;5047379;28;20110;-60
2021/12/29 09:26:59;;;;;;;7.97;3.63;;;;;;;;;;5061504;28;20226;-59
2021/12/29 09:29:32;;;;;;;18.48;5.28;;;;;;;;;;5050309;28;20083;-58
2021/12/29 09:31:59;;;;;;;16.13;5.22;;;;;;;;;;5046145;28;20127;-59
2021/12/29 09:34:25;;;;;;;13.63;5.40;;;;;;;;;;5050203;28;20112;-59
2021/12/29 09:36:52;;;;;;;11.52;5.00;;;;;;;;;;5056821;28;20064;-59
2021/12/29 09:39:19;;;;;;;9.48;3.53;;;;;;;;;;5064983;28;20060;-58
2021/12/29 09:41:45;;;;;;;14.80;5.35;;;;;;;;;;5046400;28;20139;-60
2021/12/29 09:44:12;;;;;;;18.42;6.35;;;;;;;;;;5050275;28;20052;-58
2021/12/29 09:46:40;;;;;;;9.13;4.00;;;;;;;;;;5040967;28;20083;-58
2021/12/29 09:49:07;;;;;;;7.45;3.35;;;;;;;;;;5035890;28;20076;-57
2021/12/29 09:51:34;;;;;;;10.43;4.68;;;;;;;;;;5063774;28;20088;-59
2021/12/29 09:54:00;;;;;;;11.68;5.78;;;;;;;;;;5069854;28;20430;-58
2021/12/29 09:56:27;;;;;;;9.90;4.60;;;;;;;;;;5065090;28;20097;-58
2021/12/29 09:58:55;;;;;;;7.47;4.03;;;;;;;;;;5050080;28;20056;-60
2021/12/29 10:01:23;;;;;;;12.50;4.90;;;;;;;;;;5046226;28;20501;-59
2021/12/29 10:03:50;;;;;;;10.27;3.33;;;;;;;;;;5049468;28;20084;-58
2021/12/29 10:06:17;;;;;;;9.53;4.00;;;;;;;;;;5048359;28;20068;-60
2021/12/29 10:08:47;;;;;;;8.73;4.00;;;;;;;;;;5047228;28;20109;-59
2021/12/29 10:11:15;;;;;;;11.20;4.47;;;;;;;;;;5049616;28;20076;-58
2021/12/29 10:13:42;;;;;;;12.32;4.47;;;;;;;;;;5031735;28;20056;-58
2021/12/29 10:16:11;;;;;;;11.98;4.15;;;;;;;;;;5045500;28;20080;-59
2021/12/29 10:18:40;;;;;;;9.10;3.38;;;;;;;;;;5074252;28;20056;-58
2021/12/29 10:21:10;;;;;;;10.10;4.50;;;;;;;;;;5048507;28;20110;-57
2021/12/29 10:23:39;;;;;;;8.45;3.65;;;;;;;;;;5063848;28;20095;-58
2021/12/29 10:26:06;;;;;;;10.90;4.28;;;;;;;;;;5038548;28;20131;-58
2021/12/29 10:28:34;;;;;;;8.37;4.10;;;;;;;;;;5033779;28;20049;-55
2021/12/29 10:31:03;;;;;;;11.93;4.88;;;;;;;;;;5041342;28;20129;-60
2021/12/29 10:33:34;;;;;;;10.43;4.50;;;;;;;;;;5046651;28;20048;-59
2021/12/29 10:36:28;;;;;;;11.80;3.95;;;;;;;;;;5049142;28;20068;-57
2021/12/29 10:38:58;;;;;;;11.38;4.18;;;;;;;;;;5003098;28;20057;-59
2021/12/29 10:41:25;;;;;;;12.15;3.50;;;;;;;;;;5048310;28;20079;-59
2021/12/29 10:43:57;;;;;;;9.13;3.88;;;;;;;;;;5044886;28;20167;-56
2021/12/29 10:46:24;;;;;;;11.90;3.90;;;;;;;;;;5048527;28;20048;-58
2021/12/29 10:48:52;;;;;;;7.78;3.63;;;;;;;;;;5039538;28;20049;-57
2021/12/29 10:51:22;;;;;;;8.68;3.70;;;;;;;;;;5028835;28;20056;-57
2021/12/29 10:53:49;;;;;;;10.30;3.40;;;;;;;;;;5040097;28;20106;-58
2021/12/29 10:56:23;;;;;;;8.73;3.63;;;;;;;;;;5048122;28;20055;-58
2021/12/29 10:58:53;;;;;;;8.75;3.80;;;;;;;;;;5044390;28;20044;-59
2021/12/29 11:01:20;;;;;;;11.95;4.30;;;;;;;;;;5048271;28;20049;-58
2021/12/29 11:03:49;;;;;;;16.05;4.70;;;;;;;;;;5044662;28;20084;-56
2021/12/29 11:06:16;;;;;;;8.75;3.60;;;;;;;;;;5048250;28;20134;-56
2021/12/29 11:08:47;;;;;;;7.63;3.63;;;;;;;;;;5047125;28;20086;-59
2021/12/29 11:11:13;;;;;;;12.50;4.78;;;;;;;;;;5047708;28;20083;-56
2021/12/29 11:13:41;;;;;;;11.55;4.93;;;;;;;;;;5044412;28;20563;-57
2021/12/29 11:16:09;;;;;;;8.40;3.57;;;;;;;;;;5059294;28;20113;-56
2021/12/29 11:18:47;;;;;;;7.57;4.00;;;;;;;;;;5048005;28;20433;-59
2021/12/29 11:21:24;;;;;;;9.77;3.58;;;;;;;;;;5043741;28;20057;-59
2021/12/29 11:23:50;;;;;;;9.50;4.53;;;;;;;;;;5048330;28;20064;-58
2021/12/29 11:26:17;;;;;;;10.35;3.83;;;;;;;;;;5044355;28;20053;-59
2021/12/29 11:28:45;;;;;;;8.15;3.65;;;;;;;;;;5048866;28;20059;-58
2021/12/29 11:31:12;;;;;;;8.63;3.70;;;;;;;;;;5044997;28;20064;-58
2021/12/29 11:33:39;;;;;;;9.13;4.47;;;;;;;;;;5050837;28;20306;-58
2021/12/29 11:36:06;;;;;;;9.70;4.75;;;;;;;;;;5047969;28;20075;-58
2021/12/29 11:38:34;;;;;;;7.43;3.88;;;;;;;;;;5051915;28;20048;-60
2021/12/29 11:41:03;;;;;;;11.60;5.00;;;;;;;;;;5024689;28;20099;-58
2021/12/29 11:43:29;;;;;;;11.38;4.10;;;;;;;;;;5029104;28;20358;-59
2021/12/29 11:45:58;;;;;;;12.68;5.05;;;;;;;;;;5024498;28;20140;-58
2021/12/29 11:48:26;;;;;;;14.52;4.97;;;;;;;;;;5029087;28;20049;-58
2021/12/29 11:50:55;;;;;;;13.32;5.22;;;;;;;;;;5025466;28;20049;-58
2021/12/29 11:53:25;;;;;;;10.18;5.03;;;;;;;;;;5029080;28;20085;-58
2021/12/29 11:55:54;;;;;;;14.93;7.05;;;;;;;;;;5024733;28;20143;-58
2021/12/29 11:58:25;;;;;;;9.80;4.78;;;;;;;;;;5029147;28;20049;-59
2021/12/29 12:01:01;;;;;;;8.50;3.33;;;;;;;;;;5025994;28;20060;-59
2021/12/29 12:03:38;;;;;;;14.30;5.18;;;;;;;;;;5045537;28;20058;-57
2021/12/29 12:06:06;;;;;;;9.07;3.95;;;;;;;;;;5026559;28;20070;-59
2021/12/29 12:08:32;;;;;;;13.07;5.53;;;;;;;;;;5009358;28;20054;-58
2021/12/29 12:11:01;;;;;;;14.05;5.95;;;;;;;;;;5008972;28;20054;-58
2021/12/29 12:13:28;;;;;;;11.65;5.05;;;;;;;;;;5005068;28;20053;-58
2021/12/29 12:16:06;;;;;;;11.13;4.93;;;;;;;;;;5009276;28;20321;-58
2021/12/29 12:18:46;;;;;;;10.30;4.20;;;;;;;;;;4992870;28;20057;-58
2021/12/29 12:21:24;;;;;;;7.72;3.60;;;;;;;;;;5007834;28;20081;-57
2021/12/29 12:23:51;;;;;;;7.57;3.75;;;;;;;;;;5000488;28;20064;-58
2021/12/29 12:26:20;;;;;;;9.35;4.35;;;;;;;;;;4988190;28;20060;-59
2021/12/29 12:28:48;;;;;;;9.95;3.83;;;;;;;;;;5000977;28;20058;-58
2021/12/29 12:31:26;;;;;;;8.65;4.30;;;;;;;;;;5008787;28;20065;-58
2021/12/29 12:33:54;;;;;;;9.70;4.43;;;;;;;;;;5004363;28;20123;-58
2021/12/29 12:36:20;;;;;;;8.32;4.20;;;;;;;;;;4997955;28;20054;-59
2021/12/29 12:38:48;;;;;;;12.40;4.40;;;;;;;;;;4998112;28;20073;-59
2021/12/29 12:41:16;;;;;;;8.50;3.75;;;;;;;;;;5047106;28;20107;-58
2021/12/29 12:43:50;;;;;;;13.88;4.55;;;;;;;;;;5042840;28;20049;-58
2021/12/29 12:46:28;;;;;;;10.23;3.95;;;;;;;;;;5046467;28;20049;-58
2021/12/29 12:48:54;;;;;;;10.03;3.60;;;;;;;;;;5043773;28;20048;-57
2021/12/29 12:51:23;;;;;;;6.93;3.08;;;;;;;;;;5047253;28;20075;-60
2021/12/29 12:53:50;;;;;;;11.38;3.78;;;;;;;;;;5043568;28;20049;-59
2021/12/29 12:56:18;;;;;;;7.63;3.42;;;;;;;;;;5046986;28;20098;-59
2021/12/29 12:58:46;;;;;;;12.82;4.32;;;;;;;;;;5043376;28;20144;-58
2021/12/29 13:01:14;;;;;;;7.68;3.47;;;;;;;;;;5047777;28;20059;-58
2021/12/29 13:03:42;;;;;;;7.97;3.43;;;;;;;;;;5044342;28;20076;-58
2021/12/29 13:06:11;;;;;;;7.80;3.55;;;;;;;;;;5048565;28;20310;-59
2021/12/29 13:08:38;;;;;;;7.07;2.97;;;;;;;;;;5042955;28;20073;-60
2021/12/29 13:11:07;;;;;;;10.05;3.42;;;;;;;;;;5047362;28;20060;-57
2021/12/29 13:13:35;;;;;;;7.22;2.95;;;;;;;;;;5045996;28;20156;-59
2021/12/29 13:16:02;;;;;;;6.87;3.40;;;;;;;;;;5045492;28;20151;-61
2021/12/29 13:18:29;;;;;;;8.07;3.35;;;;;;;;;;5046313;28;20143;-56
2021/12/29 13:20:58;;;;;;;8.75;3.55;;;;;;;;;;5042884;28;20080;-58
2021/12/29 13:23:25;;;;;;;7.82;3.33;;;;;;;;;;5047156;28;20052;-58
2021/12/29 13:25:53;;;;;;;6.40;2.90;;;;;;;;;;5042793;28;20114;-59
2021/12/29 13:28:21;;;;;;;8.00;3.00;;;;;;;;;;5039934;28;20064;-57
2021/12/29 13:30:50;;;;;;;10.73;3.38;;;;;;;;;;5043545;28;20151;-58
2021/12/29 13:33:17;;;;;;;8.13;2.92;;;;;;;;;;5046236;28;20044;-59
2021/12/29 13:35:46;;;;;;;7.82;3.30;;;;;;;;;;5044848;28;20053;-58
2021/12/29 13:38:16;;;;;;;;;;;;;;;;;;5050534;28;20048;-60
2021/12/29 13:40:48;;;;;;;6.82;3.05;;;;;;;;;;5043697;28;19925;-58
2021/12/29 13:43:16;;;;;;;10.13;3.05;;;;;;;;;;5046843;28;20049;-60
2021/12/29 13:45:43;;;;;;;8.73;3.13;;;;;;;;;;5025502;28;20057;-58
2021/12/29 13:48:14;;;;;;;5.38;2.53;;;;;;;;;;5046775;28;20061;-60
2021/12/29 13:50:54;;;;;;;8.20;2.88;;;;;;;;;;5040923;28;20140;-58
2021/12/29 13:53:21;;;;;;;7.22;2.78;;;;;;;;;;5042886;28;20203;-60
2021/12/29 13:55:49;;;;;;;7.10;2.58;;;;;;;;;;5026488;28;20056;-59
2021/12/29 13:58:17;;;;;;;7.88;3.30;;;;;;;;;;5045638;28;20076;-58
2021/12/29 14:00:44;;;;;;;13.60;2.67;;;;;;;;;;5041581;28;20072;-58
2021/12/29 14:03:11;;;;;;;6.18;3.00;;;;;;;;;;5045584;28;20457;-58
2021/12/29 14:05:39;;;;;;;10.57;4.53;;;;;;;;;;5043052;28;20384;-58
2021/12/29 14:08:06;;;;;;;9.07;3.50;;;;;;;;;;5044878;28;20053;-58
2021/12/29 14:10:38;;;;;;;9.00;2.70;;;;;;;;;;5045370;28;20057;-58
2021/12/29 14:13:08;;;;;;;6.00;2.85;;;;;;;;;;5042170;28;20114;-58
2021/12/29 14:15:34;;;;;;;7.60;2.65;;;;;;;;;;5045771;28;20059;-58
2021/12/29 14:18:11;;;;;;;8.80;3.25;;;;;;;;;;5041890;28;20076;-60
2021/12/29 14:20:38;;;;;;;5.53;2.80;;;;;;;;;;5045827;28;20053;-58
2021/12/29 14:23:04;;;;;;;8.90;2.95;;;;;;;;;;5042009;28;20049;-58
2021/12/29 14:25:33;;;;;;;8.05;2.95;;;;;;;;;;5042976;28;20411;-58
2021/12/29 14:28:00;;;;;;;5.88;2.63;;;;;;;;;;5031308;28;20505;-59
2021/12/29 14:30:29;;;;;;;6.97;2.53;;;;;;;;;;5042045;28;20064;-59
2021/12/29 14:32:57;;;;;;;9.00;3.40;;;;;;;;;;5049992;28;20077;-58
2021/12/29 14:35:24;;;;;;;9.43;3.10;;;;;;;;;;5046485;28;20355;-58
2021/12/29 14:37:51;;;;;;;9.23;3.00;;;;;;;;;;5042639;28;20118;-58
2021/12/29 14:40:22;;;;;;;7.50;2.67;;;;;;;;;;5045216;28;20053;-60
2021/12/29 14:42:49;;;;;;;7.32;2.45;;;;;;;;;;5041270;28;20148;-57
2021/12/29 14:45:15;;;;;;;8.95;2.90;;;;;;;;;;5045579;28;20053;-58
2021/12/29 14:47:46;;;;;;;11.77;3.22;;;;;;;;;;5041180;28;20082;-58